CheckWX is a tool to help pilots better visualize weather data.  It is not intended as a substitute for an official pre-flight weather briefing.

15:18:56 UTC

KRIL TAF
Rifle Garfield County Airport
Rifle, Colorado, USA
KRIL 191126Z 1912/2012 VRB03KT P6SM SCT200 FM192100 24007KT P6SM SCT250 FM200100 19005KT P6SM SCT250 FM200400 VRB04KT P6SM VCSH BKN120

Nov-19@
12:00 UTC

Nov-19 @ 12:00 UTC

Nov-19@
21:00 UTC

Nov-19 @ 21:00 UTC

KRIL 191126Z 1912/2012 VRB03KT P6SM SCT200
Wind
  • Variable at 3 KTS
Cloud Levels
  • Scattered at 20,000' AGL

Nov-19@
21:00 UTC

Nov-19 @ 21:00 UTC

Nov-20@
01:00 UTC

Nov-20 @ 01:00 UTC

FM192100 24007KT P6SM SCT250

From

From Standard forecast or significant change

Wind
  • 240° at 7 KTS
Cloud Levels
  • Scattered at 25,000' AGL

Nov-20@
01:00 UTC

Nov-20 @ 01:00 UTC

Nov-20@
04:00 UTC

Nov-20 @ 04:00 UTC

FM200100 19005KT P6SM SCT250

From

From Standard forecast or significant change

Wind
  • 190° at 5 KTS
Cloud Levels
  • Scattered at 25,000' AGL

Nov-20@
04:00 UTC

Nov-20 @ 04:00 UTC

Nov-20@
12:00 UTC

Nov-20 @ 12:00 UTC

FM200400 VRB04KT P6SM VCSH BKN120

From

From Standard forecast or significant change

Wind
  • Variable at 4 KTS
Cloud Levels
  • Broken at 12,000' AGL